sensor_id;sensor_type;location;lat;lon;timestamp;pressure;altitude;pressure_sealevel;temperature;humidity
59409;BME280;45213;32.654;-115.458;2023-04-20T00:00:15;101222.28;;;27.56;12.12
59409;BME280;45213;32.654;-115.458;2023-04-20T00:02:42;101214.16;;;27.42;11.81
59409;BME280;45213;32.654;-115.458;2023-04-20T00:05:09;101220.19;;;27.61;11.01
59409;BME280;45213;32.654;-115.458;2023-04-20T00:07:37;101224.53;;;27.64;11.04
59409;BME280;45213;32.654;-115.458;2023-04-20T00:10:07;101208.97;;;27.70;11.23
59409;BME280;45213;32.654;-115.458;2023-04-20T00:12:34;101210.69;;;27.40;10.90
59409;BME280;45213;32.654;-115.458;2023-04-20T00:15:01;101209.03;;;27.21;11.43
59409;BME280;45213;32.654;-115.458;2023-04-20T00:17:27;101206.66;;;27.15;10.85
59409;BME280;45213;32.654;-115.458;2023-04-20T00:19:54;101206.81;;;27.12;10.56
59409;BME280;45213;32.654;-115.458;2023-04-20T00:22:20;101205.31;;;27.24;10.26
59409;BME280;45213;32.654;-115.458;2023-04-20T00:24:47;101206.41;;;27.20;10.66
59409;BME280;45213;32.654;-115.458;2023-04-20T00:27:13;101207.44;;;27.17;9.96
59409;BME280;45213;32.654;-115.458;2023-04-20T00:29:40;101215.31;;;27.20;10.16
59409;BME280;45213;32.654;-115.458;2023-04-20T00:32:07;101204.22;;;27.11;10.00
59409;BME280;45213;32.654;-115.458;2023-04-20T00:34:34;101213.34;;;27.06;10.51
59409;BME280;45213;32.654;-115.458;2023-04-20T00:37:01;101204.97;;;26.97;10.83
59409;BME280;45213;32.654;-115.458;2023-04-20T00:39:27;101212.06;;;26.80;10.59
59409;BME280;45213;32.654;-115.458;2023-04-20T00:41:54;101212.22;;;26.77;10.43
59409;BME280;45213;32.654;-115.458;2023-04-20T00:44:20;101220.16;;;26.61;11.00
59409;BME280;45213;32.654;-115.458;2023-04-20T00:46:47;101208.09;;;26.35;11.09
59409;BME280;45213;32.654;-115.458;2023-04-20T00:49:14;101220.44;;;26.38;11.28
59409;BME280;45213;32.654;-115.458;2023-04-20T00:51:40;101222.09;;;26.23;11.10
59409;BME280;45213;32.654;-115.458;2023-04-20T00:54:08;101220.34;;;26.22;11.46
59409;BME280;45213;32.654;-115.458;2023-04-20T00:56:34;101225.38;;;26.28;11.57
59409;BME280;45213;32.654;-115.458;2023-04-20T00:59:01;101219.72;;;26.34;11.18
59409;BME280;45213;32.654;-115.458;2023-04-20T01:01:27;101207.63;;;26.27;11.18
59409;BME280;45213;32.654;-115.458;2023-04-20T01:03:54;101229.84;;;26.28;11.03
59409;BME280;45213;32.654;-115.458;2023-04-20T01:06:21;101230.72;;;26.28;10.97
59409;BME280;45213;32.654;-115.458;2023-04-20T01:08:50;101223.50;;;26.30;11.10
59409;BME280;45213;32.654;-115.458;2023-04-20T01:11:17;101232.03;;;26.19;11.46
59409;BME280;45213;32.654;-115.458;2023-04-20T01:13:43;101222.84;;;26.25;11.35
59409;BME280;45213;32.654;-115.458;2023-04-20T01:16:10;101227.31;;;26.07;11.14
59409;BME280;45213;32.654;-115.458;2023-04-20T01:18:41;101222.81;;;26.08;11.58
59409;BME280;45213;32.654;-115.458;2023-04-20T01:21:10;101224.78;;;26.04;11.76
59409;BME280;45213;32.654;-115.458;2023-04-20T01:23:37;101222.81;;;26.08;11.52
59409;BME280;45213;32.654;-115.458;2023-04-20T01:26:09;101223.28;;;25.98;11.57
59409;BME280;45213;32.654;-115.458;2023-04-20T01:28:36;101218.97;;;25.96;11.41
59409;BME280;45213;32.654;-115.458;2023-04-20T01:31:04;101225.00;;;25.99;11.50
59409;BME280;45213;32.654;-115.458;2023-04-20T01:33:32;101222.16;;;26.02;10.56
59409;BME280;45213;32.654;-115.458;2023-04-20T01:35:58;101221.63;;;25.96;11.14
59409;BME280;45213;32.654;-115.458;2023-04-20T01:38:25;101214.22;;;25.82;11.18
59409;BME280;45213;32.654;-115.458;2023-04-20T01:40:53;101222.38;;;25.79;10.98
59409;BME280;45213;32.654;-115.458;2023-04-20T01:43:21;101216.63;;;25.69;11.62
59409;BME280;45213;32.654;-115.458;2023-04-20T01:45:47;101226.72;;;25.62;11.77
59409;BME280;45213;32.654;-115.458;2023-04-20T01:48:14;101229.41;;;25.62;11.57
59409;BME280;45213;32.654;-115.458;2023-04-20T01:50:41;101220.88;;;25.54;11.71
59409;BME280;45213;32.654;-115.458;2023-04-20T01:53:08;101221.31;;;25.45;11.42
59409;BME280;45213;32.654;-115.458;2023-04-20T01:55:34;101226.84;;;25.40;11.29
59409;BME280;45213;32.654;-115.458;2023-04-20T01:58:01;101220.97;;;25.53;11.30
59409;BME280;45213;32.654;-115.458;2023-04-20T02:00:28;101229.66;;;25.37;11.55
59409;BME280;45213;32.654;-115.458;2023-04-20T02:02:54;101224.56;;;25.33;11.43
59409;BME280;45213;32.654;-115.458;2023-04-20T02:05:22;101237.06;;;25.31;12.14
59409;BME280;45213;32.654;-115.458;2023-04-20T02:07:49;101239.16;;;25.24;11.90
59409;BME280;45213;32.654;-115.458;2023-04-20T02:10:16;101242.06;;;25.18;12.13
59409;BME280;45213;32.654;-115.458;2023-04-20T02:12:44;101245.59;;;25.18;12.61
59409;BME280;45213;32.654;-115.458;2023-04-20T02:15:11;101245.78;;;25.14;12.67
59409;BME280;45213;32.654;-115.458;2023-04-20T02:17:37;101246.19;;;25.05;13.05
59409;BME280;45213;32.654;-115.458;2023-04-20T02:20:06;101245.75;;;24.95;12.58
59409;BME280;45213;32.654;-115.458;2023-04-20T02:22:34;101245.28;;;24.85;13.65
59409;BME280;45213;32.654;-115.458;2023-04-20T02:25:02;101251.06;;;24.74;13.67
59409;BME280;45213;32.654;-115.458;2023-04-20T02:27:32;101247.09;;;24.64;14.54
59409;BME280;45213;32.654;-115.458;2023-04-20T02:29:59;101244.09;;;24.50;15.48
59409;BME280;45213;32.654;-115.458;2023-04-20T02:32:26;101251.63;;;24.38;15.88
59409;BME280;45213;32.654;-115.458;2023-04-20T02:34:52;101251.59;;;24.40;19.11
59409;BME280;45213;32.654;-115.458;2023-04-20T02:37:19;101265.41;;;24.28;22.96
59409;BME280;45213;32.654;-115.458;2023-04-20T02:39:45;101260.06;;;24.06;18.19
59409;BME280;45213;32.654;-115.458;2023-04-20T02:42:12;101260.44;;;23.96;20.20
59409;BME280;45213;32.654;-115.458;2023-04-20T02:44:41;101264.19;;;23.91;20.00
59409;BME280;45213;32.654;-115.458;2023-04-20T02:47:07;101269.13;;;23.78;18.00
59409;BME280;45213;32.654;-115.458;2023-04-20T02:49:34;101272.97;;;23.69;17.66
59409;BME280;45213;32.654;-115.458;2023-04-20T02:52:01;101276.63;;;23.67;21.71
59409;BME280;45213;32.654;-115.458;2023-04-20T02:54:27;101275.91;;;23.62;17.90
59409;BME280;45213;32.654;-115.458;2023-04-20T02:56:54;101284.34;;;23.73;26.30
59409;BME280;45213;32.654;-115.458;2023-04-20T02:59:22;101285.69;;;23.61;24.55
59409;BME280;45213;32.654;-115.458;2023-04-20T03:01:58;101292.78;;;23.37;22.12
59409;BME280;45213;32.654;-115.458;2023-04-20T03:04:25;101292.34;;;23.24;21.23
59409;BME280;45213;32.654;-115.458;2023-04-20T03:06:58;101294.25;;;23.21;18.30
59409;BME280;45213;32.654;-115.458;2023-04-20T03:09:28;101300.44;;;23.21;18.35
59409;BME280;45213;32.654;-115.458;2023-04-20T03:12:13;101304.69;;;23.25;19.82
59409;BME280;45213;32.654;-115.458;2023-04-20T03:15:06;101319.84;;;23.23;19.87
59409;BME280;45213;32.654;-115.458;2023-04-20T03:17:48;101326.28;;;23.16;22.21
59409;BME280;45213;32.654;-115.458;2023-04-20T03:20:16;101316.88;;;23.07;22.99
59409;BME280;45213;32.654;-115.458;2023-04-20T03:22:43;101330.34;;;23.01;18.32
59409;BME280;45213;32.654;-115.458;2023-04-20T03:25:09;101332.16;;;23.01;19.45
59409;BME280;45213;32.654;-115.458;2023-04-20T03:28:09;101334.16;;;22.92;18.91
59409;BME280;45213;32.654;-115.458;2023-04-20T03:30:37;101334.34;;;22.86;19.76
59409;BME280;45213;32.654;-115.458;2023-04-20T03:33:14;101332.66;;;22.84;21.97
59409;BME280;45213;32.654;-115.458;2023-04-20T03:35:40;101345.88;;;22.87;22.16
59409;BME280;45213;32.654;-115.458;2023-04-20T03:38:08;101348.78;;;22.78;19.79
59409;BME280;45213;32.654;-115.458;2023-04-20T03:40:35;101351.75;;;22.68;19.54
59409;BME280;45213;32.654;-115.458;2023-04-20T03:43:03;101357.34;;;22.59;18.60
59409;BME280;45213;32.654;-115.458;2023-04-20T03:45:30;101359.09;;;22.60;20.59
59409;BME280;45213;32.654;-115.458;2023-04-20T03:47:56;101348.03;;;22.46;21.55
59409;BME280;45213;32.654;-115.458;2023-04-20T03:50:24;101371.16;;;22.42;20.55
59409;BME280;45213;32.654;-115.458;2023-04-20T03:52:51;101373.16;;;22.36;23.06
59409;BME280;45213;32.654;-115.458;2023-04-20T03:55:19;101376.81;;;22.31;22.52
59409;BME280;45213;32.654;-115.458;2023-04-20T03:57:52;101378.56;;;22.33;23.09
59409;BME280;45213;32.654;-115.458;2023-04-20T04:00:20;101386.72;;;22.25;22.41
59409;BME280;45213;32.654;-115.458;2023-04-20T04:02:46;101377.28;;;22.15;21.37
59409;BME280;45213;32.654;-115.458;2023-04-20T04:05:19;101396.50;;;22.23;23.58
59409;BME280;45213;32.654;-115.458;2023-04-20T04:07:48;101401.19;;;22.13;22.05
59409;BME280;45213;32.654;-115.458;2023-04-20T04:10:15;101401.56;;;22.01;22.28
59409;BME280;45213;32.654;-115.458;2023-04-20T04:12:44;101404.47;;;21.92;22.49
59409;BME280;45213;32.654;-115.458;2023-04-20T04:15:11;101403.72;;;21.86;21.57
59409;BME280;45213;32.654;-115.458;2023-04-20T04:17:47;101413.44;;;21.87;21.18
59409;BME280;45213;32.654;-115.458;2023-04-20T04:20:14;101413.16;;;21.97;21.15
59409;BME280;45213;32.654;-115.458;2023-04-20T04:22:41;101427.97;;;22.04;24.79
59409;BME280;45213;32.654;-115.458;2023-04-20T04:25:29;101432.75;;;21.91;24.08
59409;BME280;45213;32.654;-115.458;2023-04-20T04:27:55;101424.22;;;21.80;23.69
59409;BME280;45213;32.654;-115.458;2023-04-20T04:30:23;101423.63;;;21.70;24.59
59409;BME280;45213;32.654;-115.458;2023-04-20T04:32:50;101436.28;;;21.59;22.41
59409;BME280;45213;32.654;-115.458;2023-04-20T04:35:18;101436.38;;;21.56;22.48
59409;BME280;45213;32.654;-115.458;2023-04-20T04:37:45;101439.84;;;21.58;22.46
59409;BME280;45213;32.654;-115.458;2023-04-20T04:40:13;101444.06;;;21.66;22.45
59409;BME280;45213;32.654;-115.458;2023-04-20T04:42:40;101449.38;;;21.65;23.66
59409;BME280;45213;32.654;-115.458;2023-04-20T04:45:08;101448.78;;;21.54;22.09
59409;BME280;45213;32.654;-115.458;2023-04-20T04:47:38;101448.69;;;21.57;22.40
59409;BME280;45213;32.654;-115.458;2023-04-20T04:50:08;101445.41;;;21.48;25.79
59409;BME280;45213;32.654;-115.458;2023-04-20T04:52:36;101454.53;;;21.35;24.19
59409;BME280;45213;32.654;-115.458;2023-04-20T04:55:03;101455.53;;;21.30;22.36
59409;BME280;45213;32.654;-115.458;2023-04-20T04:57:33;101463.47;;;21.31;26.13
59409;BME280;45213;32.654;-115.458;2023-04-20T05:00:00;101476.97;;;21.20;24.21
59409;BME280;45213;32.654;-115.458;2023-04-20T05:02:26;101475.97;;;21.26;23.40
59409;BME280;45213;32.654;-115.458;2023-04-20T05:04:53;101480.56;;;21.18;23.90
59409;BME280;45213;32.654;-115.458;2023-04-20T05:07:19;101495.72;;;21.11;23.65
59409;BME280;45213;32.654;-115.458;2023-04-20T05:09:46;101491.47;;;21.04;24.76
59409;BME280;45213;32.654;-115.458;2023-04-20T05:12:13;101489.88;;;20.97;24.74
59409;BME280;45213;32.654;-115.458;2023-04-20T05:14:39;101493.72;;;20.83;24.96
59409;BME280;45213;32.654;-115.458;2023-04-20T05:17:06;101496.53;;;20.76;24.66
59409;BME280;45213;32.654;-115.458;2023-04-20T05:19:32;101508.00;;;20.76;25.08
59409;BME280;45213;32.654;-115.458;2023-04-20T05:21:59;101503.44;;;20.83;24.21
59409;BME280;45213;32.654;-115.458;2023-04-20T05:24:25;101501.47;;;20.91;23.70
59409;BME280;45213;32.654;-115.458;2023-04-20T05:26:52;101504.91;;;20.96;23.46
59409;BME280;45213;32.654;-115.458;2023-04-20T05:29:19;101504.00;;;20.96;23.34
59409;BME280;45213;32.654;-115.458;2023-04-20T05:31:46;101511.06;;;20.97;23.36
59409;BME280;45213;32.654;-115.458;2023-04-20T05:34:12;101508.53;;;20.92;23.96
59409;BME280;45213;32.654;-115.458;2023-04-20T05:36:39;101510.41;;;20.87;22.97
59409;BME280;45213;32.654;-115.458;2023-04-20T05:39:06;101517.41;;;20.90;22.96
59409;BME280;45213;32.654;-115.458;2023-04-20T05:41:33;101519.13;;;20.92;23.08
59409;BME280;45213;32.654;-115.458;2023-04-20T05:43:59;101521.63;;;20.98;23.81
59409;BME280;45213;32.654;-115.458;2023-04-20T05:46:26;101524.41;;;20.92;24.73
59409;BME280;45213;32.654;-115.458;2023-04-20T05:48:54;101529.81;;;20.86;24.89
59409;BME280;45213;32.654;-115.458;2023-04-20T05:51:21;101528.13;;;20.83;24.57
59409;BME280;45213;32.654;-115.458;2023-04-20T05:53:47;101531.63;;;20.84;25.16
59409;BME280;45213;32.654;-115.458;2023-04-20T05:56:14;101523.81;;;20.78;25.94
59409;BME280;45213;32.654;-115.458;2023-04-20T05:58:40;101531.84;;;20.75;27.54
59409;BME280;45213;32.654;-115.458;2023-04-20T06:01:07;101531.22;;;20.62;28.43
59409;BME280;45213;32.654;-115.458;2023-04-20T06:03:34;101530.56;;;20.51;27.69
59409;BME280;45213;32.654;-115.458;2023-04-20T06:06:00;101528.97;;;20.42;27.47
59409;BME280;45213;32.654;-115.458;2023-04-20T06:08:27;101535.22;;;20.36;28.23
59409;BME280;45213;32.654;-115.458;2023-04-20T06:10:54;101531.00;;;20.28;27.98
59409;BME280;45213;32.654;-115.458;2023-04-20T06:13:24;101543.44;;;20.22;28.15
59409;BME280;45213;32.654;-115.458;2023-04-20T06:15:51;101539.94;;;20.20;28.94
59409;BME280;45213;32.654;-115.458;2023-04-20T06:18:19;101545.22;;;20.20;27.91
59409;BME280;45213;32.654;-115.458;2023-04-20T06:20:45;101547.03;;;20.18;29.22
59409;BME280;45213;32.654;-115.458;2023-04-20T06:23:12;101552.41;;;20.14;27.75
59409;BME280;45213;32.654;-115.458;2023-04-20T06:25:39;101550.69;;;20.11;29.17
59409;BME280;45213;32.654;-115.458;2023-04-20T06:28:06;101542.72;;;20.14;29.09
59409;BME280;45213;32.654;-115.458;2023-04-20T06:30:33;101551.34;;;20.24;29.51
59409;BME280;45213;32.654;-115.458;2023-04-20T06:33:00;101557.44;;;20.28;30.11
59409;BME280;45213;32.654;-115.458;2023-04-20T06:35:27;101563.63;;;20.27;31.36
59409;BME280;45213;32.654;-115.458;2023-04-20T06:37:54;101568.16;;;20.21;31.59
59409;BME280;45213;32.654;-115.458;2023-04-20T06:40:26;101566.72;;;20.02;32.40
59409;BME280;45213;32.654;-115.458;2023-04-20T06:42:53;101561.59;;;19.93;33.55
59409;BME280;45213;32.654;-115.458;2023-04-20T06:45:20;101574.06;;;19.85;31.42
59409;BME280;45213;32.654;-115.458;2023-04-20T06:47:47;101571.44;;;19.85;31.27
59409;BME280;45213;32.654;-115.458;2023-04-20T06:50:13;101575.13;;;19.74;30.52
59409;BME280;45213;32.654;-115.458;2023-04-20T06:52:40;101581.38;;;19.67;29.86
59409;BME280;45213;32.654;-115.458;2023-04-20T06:55:08;101580.63;;;19.60;29.89
59409;BME280;45213;32.654;-115.458;2023-04-20T06:57:34;101584.13;;;19.59;30.12
59409;BME280;45213;32.654;-115.458;2023-04-20T07:00:06;101591.22;;;19.57;30.69
59409;BME280;45213;32.654;-115.458;2023-04-20T07:02:47;101590.25;;;19.63;30.49
59409;BME280;45213;32.654;-115.458;2023-04-20T07:05:14;101599.88;;;19.67;31.70
59409;BME280;45213;32.654;-115.458;2023-04-20T07:07:41;101591.19;;;19.60;31.94
59409;BME280;45213;32.654;-115.458;2023-04-20T07:10:09;101585.19;;;19.49;32.53
59409;BME280;45213;32.654;-115.458;2023-04-20T07:12:37;101594.09;;;19.42;32.81
59409;BME280;45213;32.654;-115.458;2023-04-20T07:15:05;101588.78;;;19.45;32.94
59409;BME280;45213;32.654;-115.458;2023-04-20T07:17:33;101594.03;;;19.47;33.14
59409;BME280;45213;32.654;-115.458;2023-04-20T07:20:00;101597.53;;;19.49;33.61
59409;BME280;45213;32.654;-115.458;2023-04-20T07:22:34;101590.53;;;19.45;33.88
59409;BME280;45213;32.654;-115.458;2023-04-20T07:25:04;101597.53;;;19.49;34.21
59409;BME280;45213;32.654;-115.458;2023-04-20T07:27:37;101598.41;;;19.49;34.60
59409;BME280;45213;32.654;-115.458;2023-04-20T07:30:05;101603.69;;;19.49;34.67
59409;BME280;45213;32.654;-115.458;2023-04-20T07:32:34;101593.97;;;19.50;34.21
59409;BME280;45213;32.654;-115.458;2023-04-20T07:35:01;101592.25;;;19.49;33.93
59409;BME280;45213;32.654;-115.458;2023-04-20T07:37:28;101592.19;;;19.53;34.82
59409;BME280;45213;32.654;-115.458;2023-04-20T07:39:56;101597.38;;;19.58;33.72
59409;BME280;45213;32.654;-115.458;2023-04-20T07:42:23;101595.63;;;19.57;33.88
59409;BME280;45213;32.654;-115.458;2023-04-20T07:44:50;101592.09;;;19.58;33.20
59409;BME280;45213;32.654;-115.458;2023-04-20T07:47:16;101596.47;;;19.60;33.41
59409;BME280;45213;32.654;-115.458;2023-04-20T07:49:43;101599.91;;;19.64;33.14
59409;BME280;45213;32.654;-115.458;2023-04-20T07:52:09;101597.25;;;19.66;32.79
59409;BME280;45213;32.654;-115.458;2023-04-20T07:54:37;101591.97;;;19.64;32.86
59409;BME280;45213;32.654;-115.458;2023-04-20T07:57:04;101592.91;;;19.63;32.77
59409;BME280;45213;32.654;-115.458;2023-04-20T07:59:31;101589.41;;;19.59;32.62
59409;BME280;45213;32.654;-115.458;2023-04-20T08:02:01;101587.69;;;19.60;33.02
59409;BME280;45213;32.654;-115.458;2023-04-20T08:04:29;101599.09;;;19.60;33.35
59409;BME280;45213;32.654;-115.458;2023-04-20T08:06:55;101595.63;;;19.57;33.32
59409;BME280;45213;32.654;-115.458;2023-04-20T08:09:22;101595.69;;;19.54;33.08
59409;BME280;45213;32.654;-115.458;2023-04-20T08:11:50;101593.91;;;19.56;33.10
59409;BME280;45213;32.654;-115.458;2023-04-20T08:14:17;101590.34;;;19.57;33.11
59409;BME280;45213;32.654;-115.458;2023-04-20T08:16:43;101592.06;;;19.59;32.87
59409;BME280;45213;32.654;-115.458;2023-04-20T08:19:10;101603.59;;;19.54;33.08
59409;BME280;45213;32.654;-115.458;2023-04-20T08:21:37;101590.41;;;19.54;33.26
59409;BME280;45213;32.654;-115.458;2023-04-20T08:24:05;101596.56;;;19.53;33.27
59409;BME280;45213;32.654;-115.458;2023-04-20T08:26:33;101592.19;;;19.52;33.26
59409;BME280;45213;32.654;-115.458;2023-04-20T08:29:00;101591.47;;;19.42;33.35
59409;BME280;45213;32.654;-115.458;2023-04-20T08:31:27;101593.28;;;19.37;33.41
59409;BME280;45213;32.654;-115.458;2023-04-20T08:33:54;101585.53;;;19.26;33.75
59409;BME280;45213;32.654;-115.458;2023-04-20T08:36:20;101585.41;;;19.32;34.19
59409;BME280;45213;32.654;-115.458;2023-04-20T08:39:03;101595.19;;;19.29;34.13
59409;BME280;45213;32.654;-115.458;2023-04-20T08:41:31;101589.09;;;19.22;33.91
59409;BME280;45213;32.654;-115.458;2023-04-20T08:43:58;101596.22;;;19.17;34.57
59409;BME280;45213;32.654;-115.458;2023-04-20T08:46:25;101592.81;;;19.09;34.25
59409;BME280;45213;32.654;-115.458;2023-04-20T08:48:52;101592.06;;;18.99;34.73
59409;BME280;45213;32.654;-115.458;2023-04-20T08:51:22;101584.28;;;18.88;34.35
59409;BME280;45213;32.654;-115.458;2023-04-20T08:53:49;101580.88;;;18.78;34.82
59409;BME280;45213;32.654;-115.458;2023-04-20T08:56:16;101586.19;;;18.77;34.50
59409;BME280;45213;32.654;-115.458;2023-04-20T08:58:43;101584.44;;;18.73;34.80
59409;BME280;45213;32.654;-115.458;2023-04-20T09:01:11;101582.72;;;18.69;34.63
59409;BME280;45213;32.654;-115.458;2023-04-20T09:03:39;101580.13;;;18.67;35.09
59409;BME280;45213;32.654;-115.458;2023-04-20T09:06:17;101580.94;;;18.71;34.98
59409;BME280;45213;32.654;-115.458;2023-04-20T09:08:44;101577.53;;;18.63;35.53
59409;BME280;45213;32.654;-115.458;2023-04-20T09:11:21;101577.47;;;18.66;34.90
59409;BME280;45213;32.654;-115.458;2023-04-20T09:16:28;101581.09;;;18.58;35.21
59409;BME280;45213;32.654;-115.458;2023-04-20T09:18:55;101580.28;;;18.53;36.22
59409;BME280;45213;32.654;-115.458;2023-04-20T09:21:23;101581.16;;;18.52;36.17
59409;BME280;45213;32.654;-115.458;2023-04-20T09:24:01;101578.50;;;18.54;35.95
59409;BME280;45213;32.654;-115.458;2023-04-20T09:26:35;101577.59;;;18.56;35.97
59409;BME280;45213;32.654;-115.458;2023-04-20T09:29:02;101587.22;;;18.59;35.55
59409;BME280;45213;32.654;-115.458;2023-04-20T09:31:29;101590.88;;;18.49;35.38
59409;BME280;45213;32.654;-115.458;2023-04-20T09:34:01;101590.13;;;18.36;35.58
59409;BME280;45213;32.654;-115.458;2023-04-20T09:36:38;101601.59;;;18.32;34.88
59409;BME280;45213;32.654;-115.458;2023-04-20T09:39:10;101598.09;;;18.31;35.13
59409;BME280;45213;32.654;-115.458;2023-04-20T09:41:38;101595.50;;;18.27;35.08
59409;BME280;45213;32.654;-115.458;2023-04-20T09:44:06;101601.63;;;18.26;34.89
59409;BME280;45213;32.654;-115.458;2023-04-20T09:46:40;101600.91;;;18.14;35.70
59409;BME280;45213;32.654;-115.458;2023-04-20T09:49:10;101601.69;;;18.23;36.10
59409;BME280;45213;32.654;-115.458;2023-04-20T09:51:39;101600.78;;;18.25;35.95
59409;BME280;45213;32.654;-115.458;2023-04-20T09:54:13;101603.50;;;18.16;36.15
59409;BME280;45213;32.654;-115.458;2023-04-20T09:56:40;101596.53;;;18.07;36.06
59409;BME280;45213;32.654;-115.458;2023-04-20T09:59:07;101600.13;;;18.03;36.38
59409;BME280;45213;32.654;-115.458;2023-04-20T10:01:34;101606.28;;;17.99;36.58
59409;BME280;45213;32.654;-115.458;2023-04-20T10:04:06;101612.50;;;17.90;37.31
59409;BME280;45213;32.654;-115.458;2023-04-20T10:06:35;101613.38;;;17.89;37.38
59409;BME280;45213;32.654;-115.458;2023-04-20T10:09:04;101617.81;;;17.84;37.85
59409;BME280;45213;32.654;-115.458;2023-04-20T10:11:36;101614.31;;;17.81;37.79
59409;BME280;45213;32.654;-115.458;2023-04-20T10:14:20;101621.41;;;17.74;37.86
59409;BME280;45213;32.654;-115.458;2023-04-20T10:22:03;101627.56;;;17.68;38.79
59409;BME280;45213;32.654;-115.458;2023-04-20T10:24:30;101631.09;;;17.67;39.17
59409;BME280;45213;32.654;-115.458;2023-04-20T10:26:57;101633.75;;;17.61;37.88
59409;BME280;45213;32.654;-115.458;2023-04-20T10:29:25;101632.88;;;17.65;38.32
59409;BME280;45213;32.654;-115.458;2023-04-20T10:31:52;101633.75;;;17.63;38.95
59409;BME280;45213;32.654;-115.458;2023-04-20T10:34:29;101632.88;;;17.64;39.19
59409;BME280;45213;32.654;-115.458;2023-04-20T10:37:10;101632.91;;;17.62;38.74
59409;BME280;45213;32.654;-115.458;2023-04-20T10:39:46;101647.78;;;17.66;39.62
59409;BME280;45213;32.654;-115.458;2023-04-20T10:42:13;101640.81;;;17.56;39.55
59409;BME280;45213;32.654;-115.458;2023-04-20T10:44:50;101650.53;;;17.48;39.84
59409;BME280;45213;32.654;-115.458;2023-04-20T10:47:26;101654.09;;;17.38;39.64
59409;BME280;45213;32.654;-115.458;2023-04-20T10:49:53;101652.38;;;17.30;39.39
59409;BME280;45213;32.654;-115.458;2023-04-20T10:52:37;101649.75;;;17.29;40.18
59409;BME280;45213;32.654;-115.458;2023-04-20T10:55:06;101659.47;;;17.19;40.55
59409;BME280;45213;32.654;-115.458;2023-04-20T10:57:33;101662.97;;;17.12;40.87
59409;BME280;45213;32.654;-115.458;2023-04-20T11:02:48;101670.91;;;17.06;41.14
59409;BME280;45213;32.654;-115.458;2023-04-20T11:05:17;101667.41;;;16.98;40.70
59409;BME280;45213;32.654;-115.458;2023-04-20T11:07:53;101674.47;;;16.91;40.52
59409;BME280;45213;32.654;-115.458;2023-04-20T11:10:38;101670.09;;;16.88;41.09
59409;BME280;45213;32.654;-115.458;2023-04-20T11:13:05;101681.50;;;16.87;41.91
59409;BME280;45213;32.654;-115.458;2023-04-20T11:15:33;101683.28;;;16.81;41.64
59409;BME280;45213;32.654;-115.458;2023-04-20T11:18:07;101692.88;;;16.86;42.19
59409;BME280;45213;32.654;-115.458;2023-04-20T11:20:34;101693.78;;;16.79;40.90
59409;BME280;45213;32.654;-115.458;2023-04-20T11:23:01;101683.25;;;16.65;40.86
59409;BME280;45213;32.654;-115.458;2023-04-20T11:25:30;101688.53;;;16.62;40.55
59409;BME280;45213;32.654;-115.458;2023-04-20T11:28:08;101688.53;;;16.55;41.06
59409;BME280;45213;32.654;-115.458;2023-04-20T11:30:41;101692.06;;;16.54;41.26
59409;BME280;45213;32.654;-115.458;2023-04-20T11:33:08;101690.31;;;16.56;41.64
59409;BME280;45213;32.654;-115.458;2023-04-20T11:35:37;101696.41;;;16.68;41.02
59409;BME280;45213;32.654;-115.458;2023-04-20T11:38:04;101699.91;;;16.61;41.77
59409;BME280;45213;32.654;-115.458;2023-04-20T11:40:30;101702.56;;;16.54;40.98
59409;BME280;45213;32.654;-115.458;2023-04-20T11:42:57;101702.56;;;16.50;41.59
59409;BME280;45213;32.654;-115.458;2023-04-20T11:45:25;101705.19;;;16.46;41.65
59409;BME280;45213;32.654;-115.458;2023-04-20T11:47:55;101712.22;;;16.42;41.85
59409;BME280;45213;32.654;-115.458;2023-04-20T11:50:23;101715.72;;;16.43;42.94
59409;BME280;45213;32.654;-115.458;2023-04-20T11:52:49;101710.47;;;16.35;43.23
59409;BME280;45213;32.654;-115.458;2023-04-20T11:55:16;101719.19;;;16.37;43.63
59409;BME280;45213;32.654;-115.458;2023-04-20T11:57:43;101720.97;;;16.35;42.88
59409;BME280;45213;32.654;-115.458;2023-04-20T12:00:10;101719.22;;;16.43;42.41
59409;BME280;45213;32.654;-115.458;2023-04-20T12:02:40;101722.72;;;16.39;41.98
59409;BME280;45213;32.654;-115.458;2023-04-20T12:05:07;101721.84;;;16.37;42.09
59409;BME280;45213;32.654;-115.458;2023-04-20T12:07:34;101722.72;;;16.36;41.90
59409;BME280;45213;32.654;-115.458;2023-04-20T12:10:01;101729.75;;;16.42;42.19
59409;BME280;45213;32.654;-115.458;2023-04-20T12:12:27;101730.59;;;16.39;42.21
59409;BME280;45213;32.654;-115.458;2023-04-20T12:14:54;101733.25;;;16.36;41.56
59409;BME280;45213;32.654;-115.458;2023-04-20T12:17:20;101734.97;;;16.37;41.66
59409;BME280;45213;32.654;-115.458;2023-04-20T12:19:47;101742.00;;;16.35;41.57
59409;BME280;45213;32.654;-115.458;2023-04-20T12:22:14;101736.72;;;16.32;41.20
59409;BME280;45213;32.654;-115.458;2023-04-20T12:24:41;101742.00;;;16.32;41.60
59409;BME280;45213;32.654;-115.458;2023-04-20T12:27:07;101741.13;;;16.32;41.59
59409;BME280;45213;32.654;-115.458;2023-04-20T12:29:34;101742.00;;;16.26;41.09
59409;BME280;45213;32.654;-115.458;2023-04-20T12:32:00;101745.50;;;16.31;41.30
59409;BME280;45213;32.654;-115.458;2023-04-20T12:34:27;101734.97;;;16.29;41.25
59409;BME280;45213;32.654;-115.458;2023-04-20T12:36:53;101749.00;;;16.27;41.15